Time;durP1;ratioP1;P1;durP2;ratioP2;P2;SDS_P1;SDS_P2;PMS_P1;PMS_P2;Temp;Humidity;BMP_temperature;BMP_pressure;BME280_temperature;BME280_humidity;BME280_pressure;Samples;Min_cycle;Max_cycle;Signal;HPM_P1;HPM_P2
2024/03/04 00:01:04;;;;;;;38.67;14.23;;;;;;;-141.50;100.00;63355.56;4999263;28;20172;-81
2024/03/04 00:03:33;;;;;;;38.58;14.48;;;;;;;-141.50;100.00;63355.56;4997859;28;20050;-82
2024/03/04 00:06:04;;;;;;;37.35;15.38;;;;;;;-141.50;100.00;63355.56;5015247;28;20139;-83
2024/03/04 00:08:32;;;;;;;32.13;12.93;;;;;;;-141.50;100.00;63355.56;5000952;28;20507;-82
2024/03/04 00:10:58;;;;;;;33.45;12.02;;;;;;;-141.50;100.00;63355.56;5004830;28;20077;-82
2024/03/04 00:13:25;;;;;;;29.83;12.55;;;;;;;-141.50;100.00;63355.56;4996837;28;20046;-81
2024/03/04 00:15:52;;;;;;;33.25;12.57;;;;;;;-141.50;100.00;63355.56;5014107;28;20142;-82
2024/03/04 00:18:19;;;;;;;32.08;12.10;;;;;;;-141.50;100.00;63355.56;5002783;28;20052;-82
2024/03/04 00:20:49;;;;;;;36.03;13.65;;;;;;;-141.50;100.00;63355.56;4989125;28;20045;-81
2024/03/04 00:23:16;;;;;;;32.20;12.45;;;;;;;-141.50;100.00;63355.56;5017759;28;20050;-81
2024/03/04 00:25:45;;;;;;;30.10;12.30;;;;;;;-141.50;100.00;63355.56;5016270;28;20065;-81
2024/03/04 00:28:12;;;;;;;34.58;12.63;;;;;;;-141.50;100.00;63355.56;5014644;28;20064;-81
2024/03/04 00:30:41;;;;;;;26.85;11.27;;;;;;;-141.50;100.00;63355.56;5012120;28;20324;-81
2024/03/04 00:33:09;;;;;;;31.88;12.85;;;;;;;-141.50;100.00;63355.56;5006325;28;20053;-81
2024/03/04 00:35:36;;;;;;;27.13;11.43;;;;;;;-141.50;100.00;63355.56;4994589;28;20046;-81
2024/03/04 00:38:03;;;;;;;31.20;12.20;;;;;;;-141.50;100.00;63355.56;4991561;28;20237;-82
2024/03/04 00:40:30;;;;;;;32.95;12.43;;;;;;;-141.50;100.00;63355.56;4993355;28;20111;-82
2024/03/04 00:42:57;;;;;;;33.28;12.40;;;;;;;-141.50;100.00;63355.56;4999223;28;20419;-82
2024/03/04 00:45:24;;;;;;;35.03;12.35;;;;;;;-141.50;100.00;63355.56;4979750;28;20052;-82
2024/03/04 00:47:51;;;;;;;30.95;12.00;;;;;;;-141.50;100.00;63355.56;4978020;28;20038;-83
2024/03/04 00:50:18;;;;;;;32.92;12.85;;;;;;;-141.50;100.00;63355.56;5011042;28;20060;-81
2024/03/04 00:52:45;;;;;;;34.65;12.10;;;;;;;-141.50;100.00;63355.56;4991845;28;20103;-81
2024/03/04 00:55:12;;;;;;;31.83;11.80;;;;;;;-141.50;100.00;63355.56;5011362;28;20508;-82
2024/03/04 00:57:38;;;;;;;31.70;12.13;;;;;;;-141.50;100.00;63355.56;5010410;28;20054;-81
2024/03/04 01:00:08;;;;;;;30.63;12.13;;;;;;;-141.50;100.00;63355.56;5009598;28;20060;-81
2024/03/04 01:02:35;;;;;;;30.80;12.45;;;;;;;-141.50;100.00;63355.56;4994008;28;20054;-82
2024/03/04 01:05:02;;;;;;;33.90;11.40;;;;;;;-141.50;100.00;63355.56;4993028;28;20417;-82
2024/03/04 01:07:29;;;;;;;31.00;12.25;;;;;;;-141.50;100.00;63355.56;5002420;28;20566;-83
2024/03/04 01:09:56;;;;;;;27.23;11.05;;;;;;;-141.50;100.00;63355.56;5008388;28;20124;-82
2024/03/04 01:12:23;;;;;;;28.95;11.82;;;;;;;-141.50;100.00;63355.56;5018813;28;20125;-82
2024/03/04 01:14:50;;;;;;;29.63;11.00;;;;;;;-141.50;100.00;63355.56;5016317;28;20054;-83
2024/03/04 01:17:17;;;;;;;28.63;11.18;;;;;;;-141.50;100.00;63355.56;5017514;28;20054;-81
2024/03/04 01:19:46;;;;;;;27.10;11.68;;;;;;;-141.50;100.00;63355.56;4988165;28;20060;-80
2024/03/04 01:22:16;;;;;;;28.55;10.93;;;;;;;-141.50;100.00;63355.56;4998367;28;20062;-82
2024/03/04 01:24:44;;;;;;;27.40;11.05;;;;;;;-141.50;100.00;63355.56;5014104;28;20062;-81
2024/03/04 01:27:12;;;;;;;26.45;10.98;;;;;;;-141.50;100.00;63355.56;5015476;28;20061;-81
2024/03/04 01:29:41;;;;;;;28.38;10.50;;;;;;;-141.50;100.00;63355.56;5023123;28;20070;-81
2024/03/04 01:32:12;;;;;;;33.00;11.63;;;;;;;-141.50;100.00;63355.56;4993721;28;20071;-81
2024/03/04 01:34:39;;;;;;;29.27;10.52;;;;;;;-141.50;100.00;63355.56;4997930;28;20062;-79
2024/03/04 01:37:10;;;;;;;29.20;11.45;;;;;;;-141.50;100.00;63355.56;4974344;28;20505;-82
2024/03/04 01:39:37;;;;;;;23.48;9.73;;;;;;;-141.50;100.00;63355.56;4992610;28;20058;-79
2024/03/04 01:42:04;;;;;;;30.20;11.27;;;;;;;-141.50;100.00;63355.56;5011580;28;20046;-81
2024/03/04 01:44:38;;;;;;;29.23;11.23;;;;;;;-141.50;100.00;63355.56;5009691;28;20069;-80
2024/03/04 01:47:10;;;;;;;27.23;10.30;;;;;;;-141.50;100.00;63355.56;5009782;28;20193;-81
2024/03/04 01:49:38;;;;;;;27.45;11.07;;;;;;;-141.50;100.00;63355.56;5009174;28;20137;-79
2024/03/04 01:52:06;;;;;;;31.80;10.88;;;;;;;-141.50;100.00;63355.56;4991377;28;20052;-81
2024/03/04 01:54:38;;;;;;;25.17;9.73;;;;;;;-141.50;100.00;63355.56;4981506;28;20053;-83
2024/03/04 01:57:11;;;;;;;26.08;10.77;;;;;;;-141.50;100.00;63355.56;4981942;28;20066;-82
2024/03/04 01:59:39;;;;;;;29.23;10.35;;;;;;;-141.50;100.00;63355.56;5008798;28;20108;-81
2024/03/04 02:02:08;;;;;;;26.17;9.93;;;;;;;-141.50;100.00;63355.56;4973083;28;20045;-81
2024/03/04 02:04:35;;;;;;;24.48;9.85;;;;;;;-141.50;100.00;63355.56;5021345;28;20072;-82
2024/03/04 02:07:04;;;;;;;29.85;10.73;;;;;;;-141.50;100.00;63355.56;5019428;28;20046;-81
2024/03/04 02:09:32;;;;;;;27.55;10.48;;;;;;;-141.50;100.00;63355.56;5018197;28;20098;-82
2024/03/04 02:11:59;;;;;;;24.42;10.23;;;;;;;-141.50;100.00;63355.56;5017469;28;22837;-81
2024/03/04 02:14:26;;;;;;;27.10;10.15;;;;;;;-141.50;100.00;63355.56;5018178;28;20064;-83
2024/03/04 02:16:55;;;;;;;30.90;10.45;;;;;;;-141.50;100.00;63355.56;5000129;28;20069;-81
2024/03/04 02:19:22;;;;;;;25.35;10.48;;;;;;;-141.50;100.00;63355.56;5002194;28;20073;-80
2024/03/04 02:21:57;;;;;;;28.80;10.68;;;;;;;-141.50;100.00;63355.56;4980517;28;20046;-82
2024/03/04 02:24:24;;;;;;;24.20;10.32;;;;;;;-141.50;100.00;63355.56;5016378;28;20423;-83
2024/03/04 02:26:51;;;;;;;22.80;9.23;;;;;;;-141.50;100.00;63355.56;5016182;28;20073;-85
2024/03/04 02:29:18;;;;;;;24.13;9.95;;;;;;;-141.50;100.00;63355.56;4985506;28;20089;-83
2024/03/04 02:31:46;;;;;;;26.48;9.57;;;;;;;-141.50;100.00;63355.56;5016028;28;20046;-82
2024/03/04 02:34:13;;;;;;;26.95;10.45;;;;;;;-141.50;100.00;63355.56;5015762;28;20519;-83
2024/03/04 02:36:41;;;;;;;26.65;9.10;;;;;;;-141.50;100.00;63355.56;5002363;28;20121;-81
2024/03/04 02:39:10;;;;;;;26.38;8.80;;;;;;;-141.50;100.00;63355.56;5016471;28;20054;-83
2024/03/04 02:41:39;;;;;;;26.17;9.27;;;;;;;-141.50;100.00;63355.56;4993417;28;20062;-81
2024/03/04 02:44:08;;;;;;;27.90;9.70;;;;;;;-141.50;100.00;63355.56;5013288;28;20046;-82
2024/03/04 02:46:40;;;;;;;22.23;9.15;;;;;;;-141.50;100.00;63355.56;5012610;28;20049;-82
2024/03/04 02:49:07;;;;;;;21.60;8.70;;;;;;;-141.50;100.00;63355.56;5010578;28;20092;-83
2024/03/04 02:51:33;;;;;;;29.33;9.70;;;;;;;-141.50;100.00;63355.56;5012763;28;20061;-82
2024/03/04 02:54:00;;;;;;;26.55;9.50;;;;;;;-141.50;100.00;63355.56;5011340;28;20062;-80
2024/03/04 02:56:27;;;;;;;31.50;10.65;;;;;;;-141.50;100.00;63355.56;5013712;28;20116;-81
2024/03/04 02:58:54;;;;;;;24.33;9.55;;;;;;;-141.50;100.00;63355.56;4998420;28;20058;-81
2024/03/04 03:01:20;;;;;;;23.55;9.38;;;;;;;-141.50;100.00;63355.56;4995958;28;20080;-81
2024/03/04 03:03:47;;;;;;;29.27;10.30;;;;;;;-141.50;100.00;63355.56;5003372;28;20076;-83
2024/03/04 03:06:14;;;;;;;26.35;9.95;;;;;;;-141.50;100.00;63355.56;4995473;28;20183;-82
2024/03/04 03:08:41;;;;;;;21.80;9.35;;;;;;;-141.50;100.00;63355.56;4995662;28;20058;-81
2024/03/04 03:11:08;;;;;;;20.27;9.05;;;;;;;-141.50;100.00;63355.56;4999150;28;20448;-81
2024/03/04 03:13:34;;;;;;;23.05;8.95;;;;;;;-141.50;100.00;63355.56;5019655;28;20054;-80
2024/03/04 03:16:03;;;;;;;22.55;9.25;;;;;;;-141.50;100.00;63355.56;4997061;28;20077;-82
2024/03/04 03:18:32;;;;;;;26.75;9.88;;;;;;;-141.50;100.00;63355.56;5011182;28;20058;-80
2024/03/04 03:20:59;;;;;;;23.90;9.00;;;;;;;-141.50;100.00;63355.56;4999352;28;20073;-81
2024/03/04 03:23:26;;;;;;;23.08;8.90;;;;;;;-141.50;100.00;63355.56;5017743;28;21101;-80
2024/03/04 03:25:52;;;;;;;21.45;8.60;;;;;;;-141.50;100.00;63355.56;5000214;28;20338;-82
2024/03/04 03:28:19;;;;;;;25.83;9.48;;;;;;;-141.50;100.00;63355.56;4999000;28;20065;-82
2024/03/04 03:30:46;;;;;;;28.50;9.38;;;;;;;-141.50;100.00;63355.56;5005867;28;20054;-79
2024/03/04 03:33:13;;;;;;;26.50;9.20;;;;;;;-141.50;100.00;63355.56;5013067;28;20123;-81
2024/03/04 03:35:40;;;;;;;22.80;8.93;;;;;;;-141.50;100.00;63355.56;5018925;28;20124;-82
2024/03/04 03:38:07;;;;;;;27.65;8.90;;;;;;;-141.50;100.00;63355.56;4992990;28;20396;-81
2024/03/04 03:40:34;;;;;;;25.40;9.43;;;;;;;-141.50;100.00;63355.56;5014503;28;20058;-83
2024/03/04 03:43:01;;;;;;;25.25;8.77;;;;;;;-141.50;100.00;63355.56;5019172;28;20052;-82
2024/03/04 03:45:31;;;;;;;26.90;9.88;;;;;;;-141.50;100.00;63355.56;5019384;28;20061;-82
2024/03/04 03:47:58;;;;;;;20.02;8.32;;;;;;;-141.50;100.00;63355.56;5015496;28;20456;-82
2024/03/04 03:50:24;;;;;;;20.33;8.57;;;;;;;-141.50;100.00;63355.56;4997730;28;20125;-80
2024/03/04 03:52:51;;;;;;;28.27;10.27;;;;;;;-141.50;100.00;63355.56;4993264;28;20078;-82
2024/03/04 03:55:18;;;;;;;22.30;9.10;;;;;;;-141.50;100.00;63355.56;4980796;28;20050;-82
2024/03/04 03:57:45;;;;;;;26.15;8.00;;;;;;;-141.50;100.00;63355.56;5011914;28;20066;-82
2024/03/04 04:00:25;;;;;;;20.58;7.97;;;;;;;-141.50;100.00;63355.56;5011462;28;20057;-81
2024/03/04 04:02:57;;;;;;;26.55;8.90;;;;;;;-141.50;100.00;63355.56;5012454;28;20054;-82
2024/03/04 04:05:23;;;;;;;25.23;9.40;;;;;;;-141.50;100.00;63355.56;5011237;28;20057;-81
2024/03/04 04:07:50;;;;;;;18.90;8.15;;;;;;;-141.50;100.00;63355.56;5011140;28;20126;-81
2024/03/04 04:10:17;;;;;;;30.02;9.18;;;;;;;-141.50;100.00;63355.56;5010716;28;20572;-81
2024/03/04 04:12:44;;;;;;;24.88;8.77;;;;;;;-141.50;100.00;63355.56;5012515;28;20041;-80
2024/03/04 04:15:11;;;;;;;23.80;9.05;;;;;;;-141.50;100.00;63355.56;4994357;28;20050;-81
2024/03/04 04:17:38;;;;;;;24.65;9.02;;;;;;;-141.50;100.00;63355.56;5010497;28;20132;-81
2024/03/04 04:20:07;;;;;;;22.83;9.05;;;;;;;-141.50;100.00;63355.56;5010484;28;20046;-82
2024/03/04 04:22:36;;;;;;;21.45;8.60;;;;;;;-141.50;100.00;63355.56;4970858;28;20062;-79
2024/03/04 04:25:03;;;;;;;22.25;8.35;;;;;;;-141.50;100.00;63355.56;5010800;28;20046;-79
2024/03/04 04:27:30;;;;;;;27.00;8.68;;;;;;;-141.50;100.00;63355.56;4993221;28;20622;-80
2024/03/04 04:29:57;;;;;;;23.17;8.80;;;;;;;-141.50;100.00;63355.56;4991490;28;20594;-80
2024/03/04 04:32:27;;;;;;;22.13;8.77;;;;;;;-141.50;100.00;63355.56;5011868;28;20060;-80
2024/03/04 04:34:54;;;;;;;20.05;7.88;;;;;;;-141.50;100.00;63355.56;4997076;28;20245;-83
2024/03/04 04:37:21;;;;;;;23.33;8.45;;;;;;;-141.50;100.00;63355.56;5012540;28;20046;-82
2024/03/04 04:39:47;;;;;;;28.20;8.98;;;;;;;-141.50;100.00;63355.56;4985905;28;20112;-79
2024/03/04 04:42:15;;;;;;;28.67;9.75;;;;;;;-141.50;100.00;63355.56;5000029;28;20054;-82
2024/03/04 04:44:42;;;;;;;23.73;8.80;;;;;;;-141.50;100.00;63355.56;5014646;28;20058;-80
2024/03/04 04:47:09;;;;;;;22.92;8.77;;;;;;;-141.50;100.00;63355.56;5017598;28;20121;-84
2024/03/04 04:49:36;;;;;;;23.77;8.90;;;;;;;-141.50;100.00;63355.56;5001529;28;20038;-80
2024/03/04 04:52:03;;;;;;;22.77;8.18;;;;;;;-141.50;100.00;63355.56;5000163;28;20038;-81
2024/03/04 04:54:30;;;;;;;26.52;8.55;;;;;;;-141.50;100.00;63355.56;5014105;28;20049;-81
2024/03/04 04:56:56;;;;;;;27.38;8.88;;;;;;;-141.50;100.00;63355.56;5015348;28;20076;-82
2024/03/04 04:59:23;;;;;;;26.25;8.55;;;;;;;-141.50;100.00;63355.56;4977955;28;20496;-81
2024/03/04 05:01:50;;;;;;;20.13;8.07;;;;;;;-141.50;100.00;63355.56;5002508;28;20453;-81
2024/03/04 05:04:18;;;;;;;25.65;8.38;;;;;;;-141.50;100.00;63355.56;5009770;28;20054;-82
2024/03/04 05:07:05;;;;;;;24.30;8.88;;;;;;;-141.50;100.00;63355.56;5008801;28;20092;-83
2024/03/04 05:09:32;;;;;;;26.35;9.57;;;;;;;-141.50;100.00;63355.56;4999650;28;20269;-81
2024/03/04 05:11:59;;;;;;;24.60;9.50;;;;;;;-141.50;100.00;63355.56;5008397;28;20050;-81
2024/03/04 05:14:25;;;;;;;28.67;9.57;;;;;;;-141.50;100.00;63355.56;5005028;28;20531;-81
2024/03/04 05:16:52;;;;;;;26.10;9.05;;;;;;;-141.50;100.00;63355.56;4991531;28;20060;-81
2024/03/04 05:19:21;;;;;;;23.92;8.85;;;;;;;-141.50;100.00;63355.56;4973158;28;20054;-81
2024/03/04 05:21:47;;;;;;;25.95;9.38;;;;;;;-141.50;100.00;63355.56;5011790;28;20145;-83
2024/03/04 05:24:14;;;;;;;23.85;9.10;;;;;;;-141.50;100.00;63355.56;4979327;28;20125;-82
2024/03/04 05:26:41;;;;;;;23.02;8.02;;;;;;;-141.50;100.00;63355.56;5004466;28;20058;-81
2024/03/04 05:29:08;;;;;;;20.30;8.27;;;;;;;-141.50;100.00;63355.56;5012938;28;20096;-80
2024/03/04 05:31:34;;;;;;;27.73;9.48;;;;;;;-141.50;100.00;63355.56;4990565;28;20046;-79
2024/03/04 05:34:01;;;;;;;22.95;8.98;;;;;;;-141.50;100.00;63355.56;4980472;28;20050;-78
2024/03/04 05:36:28;;;;;;;20.17;7.68;;;;;;;-141.50;100.00;63355.56;4982560;28;20130;-79
2024/03/04 05:38:55;;;;;;;23.08;8.68;;;;;;;-141.50;100.00;63355.56;4991443;28;20658;-79
2024/03/04 05:41:22;;;;;;;21.00;8.32;;;;;;;-141.50;100.00;63355.56;5008447;28;20052;-79
2024/03/04 05:43:48;;;;;;;23.40;9.10;;;;;;;-141.50;100.00;63355.56;5008881;28;20049;-79
2024/03/04 05:46:15;;;;;;;26.02;9.25;;;;;;;-141.50;100.00;63355.56;4991534;28;20053;-79
2024/03/04 05:48:45;;;;;;;27.15;9.35;;;;;;;-141.50;100.00;63355.56;5008938;28;20073;-80
2024/03/04 05:51:11;;;;;;;26.20;9.07;;;;;;;-141.50;100.00;63355.56;5004692;28;20124;-79
2024/03/04 05:53:38;;;;;;;21.48;8.43;;;;;;;-141.50;100.00;63355.56;4993555;28;20053;-79
2024/03/04 05:56:05;;;;;;;21.08;9.07;;;;;;;-141.50;100.00;63355.56;5011981;28;20108;-80
2024/03/04 05:58:32;;;;;;;23.73;8.88;;;;;;;-141.50;100.00;63355.56;4998843;28;20260;-79
2024/03/04 06:01:00;;;;;;;24.25;8.93;;;;;;;-141.50;100.00;63355.56;4992963;28;20057;-79
2024/03/04 06:03:27;;;;;;;25.17;9.43;;;;;;;-141.50;100.00;63355.56;5016636;28;20073;-78
2024/03/04 06:05:54;;;;;;;20.63;8.25;;;;;;;-141.50;100.00;63355.56;5022809;28;20069;-79
2024/03/04 06:08:20;;;;;;;20.75;8.30;;;;;;;-141.50;100.00;63355.56;5011381;28;20049;-80
2024/03/04 06:10:47;;;;;;;21.98;8.65;;;;;;;-141.50;100.00;63355.56;4977416;28;20057;-81
2024/03/04 06:13:14;;;;;;;24.20;8.50;;;;;;;-141.50;100.00;63355.56;4989331;28;20065;-79
2024/03/04 06:15:41;;;;;;;23.08;8.32;;;;;;;-141.50;100.00;63355.56;4999586;28;20074;-78
2024/03/04 06:18:08;;;;;;;24.77;9.68;;;;;;;-141.50;100.00;63355.56;5010588;28;20139;-80
2024/03/04 06:20:34;;;;;;;25.95;9.10;;;;;;;-141.50;100.00;63355.56;4978487;28;20054;-79
2024/03/04 06:23:01;;;;;;;26.05;9.23;;;;;;;-141.50;100.00;63355.56;4992489;28;20566;-80
2024/03/04 06:25:28;;;;;;;26.00;9.20;;;;;;;-141.50;100.00;63355.56;5010256;28;20049;-77
2024/03/04 06:27:55;;;;;;;30.00;9.65;;;;;;;-141.50;100.00;63355.56;5010677;28;20096;-79
2024/03/04 06:30:22;;;;;;;31.33;10.55;;;;;;;-141.50;100.00;63355.56;4981217;28;20507;-78
2024/03/04 06:32:48;;;;;;;22.95;9.35;;;;;;;-141.50;100.00;63355.56;4977685;28;20052;-78
2024/03/04 06:35:15;;;;;;;30.38;10.70;;;;;;;-141.50;100.00;63355.56;4988486;28;20050;-79
2024/03/04 06:37:42;;;;;;;27.33;10.05;;;;;;;-141.50;100.00;63355.56;5009216;28;20115;-78
2024/03/04 06:40:09;;;;;;;25.50;8.73;;;;;;;-141.50;100.00;63355.56;5014835;28;20052;-78
2024/03/04 06:42:37;;;;;;;30.20;10.43;;;;;;;-141.50;100.00;63355.56;4990677;28;20050;-80
2024/03/04 06:45:04;;;;;;;32.42;10.95;;;;;;;-141.50;100.00;63355.56;5014662;28;20484;-79
2024/03/04 06:47:30;;;;;;;25.20;9.57;;;;;;;-141.50;100.00;63355.56;4993781;28;20046;-78
2024/03/04 06:49:57;;;;;;;25.05;9.50;;;;;;;-141.50;100.00;63355.56;5013935;28;20347;-78
2024/03/04 06:52:24;;;;;;;26.40;9.85;;;;;;;-141.50;100.00;63355.56;4996706;28;20291;-80
2024/03/04 06:54:50;;;;;;;29.05;11.25;;;;;;;-141.50;100.00;63355.56;5013816;28;20397;-79
2024/03/04 06:57:17;;;;;;;26.10;10.05;;;;;;;-141.50;100.00;63355.56;4997673;28;20124;-78
2024/03/04 06:59:44;;;;;;;25.95;10.48;;;;;;;-141.50;100.00;63355.56;4995010;28;20065;-78
2024/03/04 07:02:11;;;;;;;30.17;10.27;;;;;;;-141.50;100.00;63355.56;5014134;28;20042;-78
2024/03/04 07:04:38;;;;;;;28.88;10.25;;;;;;;-141.50;100.00;63355.56;5014015;28;20500;-80
2024/03/04 07:07:04;;;;;;;31.17;11.70;;;;;;;-141.50;100.00;63355.56;5014595;28;20050;-79
2024/03/04 07:09:31;;;;;;;29.92;11.57;;;;;;;-141.50;100.00;63355.56;5013235;28;20045;-79
2024/03/04 07:11:58;;;;;;;30.70;11.63;;;;;;;-141.50;100.00;63355.56;5012931;28;20057;-79
2024/03/04 07:14:25;;;;;;;48.90;14.25;;;;;;;-141.50;100.00;63355.56;4994419;28;20239;-77
2024/03/04 07:16:51;;;;;;;38.00;13.07;;;;;;;-141.50;100.00;63355.56;5011711;28;20479;-78
2024/03/04 07:19:18;;;;;;;88.57;24.30;;;;;;;-141.50;100.00;63355.56;5012556;28;20524;-79
2024/03/04 07:21:45;;;;;;;193.20;46.25;;;;;;;-141.50;100.00;63355.56;5004235;28;20455;-81
2024/03/04 07:24:12;;;;;;;193.32;46.17;;;;;;;-141.50;100.00;63355.56;5007018;28;20050;-80
2024/03/04 07:26:38;;;;;;;108.13;29.63;;;;;;;-141.50;100.00;63355.56;4993763;28;20077;-78
2024/03/04 07:29:07;;;;;;;84.07;23.25;;;;;;;-141.50;100.00;63355.56;4978359;28;20477;-79
2024/03/04 07:31:44;;;;;;;60.47;19.50;;;;;;;-141.50;100.00;63355.56;4994872;28;20063;-78
2024/03/04 07:34:11;;;;;;;38.70;13.68;;;;;;;-141.50;100.00;63355.56;4990628;28;20369;-79
2024/03/04 07:36:37;;;;;;;47.80;15.18;;;;;;;-141.50;100.00;63355.56;4990912;28;20099;-78
2024/03/04 07:39:05;;;;;;;61.30;19.33;;;;;;;-141.50;100.00;63355.56;4991764;28;20076;-79
2024/03/04 07:41:32;;;;;;;62.63;20.13;;;;;;;-141.50;100.00;63355.56;5007910;28;20046;-78
2024/03/04 07:43:58;;;;;;;62.25;19.85;;;;;;;-141.50;100.00;63355.56;4992239;28;20050;-79
2024/03/04 07:46:25;;;;;;;56.45;17.83;;;;;;;-141.50;100.00;63355.56;4976082;28;20136;-79
2024/03/04 07:48:52;;;;;;;58.33;18.95;;;;;;;-141.50;100.00;63355.56;5003336;28;20121;-79
2024/03/04 07:51:19;;;;;;;61.42;18.92;;;;;;;-141.50;100.00;63355.56;4982447;28;20528;-78
2024/03/04 07:53:45;;;;;;;53.08;17.48;;;;;;;-141.50;100.00;63355.56;4992451;28;20155;-80
2024/03/04 07:56:12;;;;;;;44.17;16.52;;;;;;;-141.50;100.00;63355.56;5005957;28;20069;-79
2024/03/04 07:58:39;;;;;;;51.85;17.42;;;;;;;-141.50;100.00;63355.56;5010035;28;20452;-81
2024/03/04 08:01:05;;;;;;;53.63;17.55;;;;;;;-141.50;100.00;63355.56;4994652;28;21970;-80
2024/03/04 08:03:32;;;;;;;53.50;17.85;;;;;;;-141.50;100.00;63355.56;4993068;28;20056;-78
2024/03/04 08:05:59;;;;;;;55.53;17.65;;;;;;;-141.50;100.00;63355.56;5010827;28;20238;-80
2024/03/04 08:08:25;;;;;;;52.92;18.33;;;;;;;-141.50;100.00;63355.56;5010205;28;20527;-78
2024/03/04 08:10:53;;;;;;;52.28;18.02;;;;;;;-141.50;100.00;63355.56;5000145;28;20041;-79
2024/03/04 08:13:20;;;;;;;49.20;18.27;;;;;;;-141.50;100.00;63355.56;5002380;28;20046;-78
2024/03/04 08:15:48;;;;;;;50.05;18.85;;;;;;;-141.50;100.00;63355.56;4990500;28;20057;-79
2024/03/04 08:18:15;;;;;;;48.13;18.15;;;;;;;-141.50;100.00;63355.56;4990115;28;20420;-80
2024/03/04 08:20:42;;;;;;;48.38;17.63;;;;;;;-141.50;100.00;63355.56;5009071;28;20136;-78
2024/03/04 08:23:09;;;;;;;46.80;18.10;;;;;;;-141.50;100.00;63355.56;5009191;28;20041;-78
2024/03/04 08:25:35;;;;;;;44.15;17.15;;;;;;;-141.50;100.00;63355.56;5012396;28;20054;-78
2024/03/04 08:28:02;;;;;;;45.97;16.73;;;;;;;-141.50;100.00;63355.56;5010168;28;20045;-78
2024/03/04 08:30:31;;;;;;;46.63;18.17;;;;;;;-141.50;100.00;63355.56;5008286;28;20062;-79
2024/03/04 08:32:57;;;;;;;48.97;18.33;;;;;;;-141.50;100.00;63355.56;5011007;28;20176;-78
2024/03/04 08:35:27;;;;;;;43.83;16.58;;;;;;;-141.50;100.00;63355.56;5010648;28;20054;-78
2024/03/04 08:37:54;;;;;;;42.30;17.30;;;;;;;-141.50;100.00;63355.56;4997213;28;20057;-79
2024/03/04 08:40:21;;;;;;;47.50;18.80;;;;;;;-141.50;100.00;63355.56;5010405;28;20057;-79
2024/03/04 08:42:48;;;;;;;43.65;17.60;;;;;;;-141.50;100.00;63355.56;4991390;28;20065;-80
2024/03/04 08:45:16;;;;;;;39.22;17.02;;;;;;;-141.50;100.00;63355.56;4993054;28;20141;-79
2024/03/04 08:47:43;;;;;;;47.63;18.25;;;;;;;-141.50;100.00;63355.56;5007827;28;20074;-80
2024/03/04 08:50:10;;;;;;;42.47;18.88;;;;;;;-141.50;100.00;63355.56;5009692;28;20113;-79
2024/03/04 08:52:37;;;;;;;42.28;18.02;;;;;;;-141.50;100.00;63355.56;5009100;28;20061;-78
2024/03/04 08:55:04;;;;;;;46.85;18.95;;;;;;;-141.50;100.00;63355.56;5008851;28;20034;-80
2024/03/04 08:57:31;;;;;;;49.25;19.42;;;;;;;-141.50;100.00;63355.56;4991597;28;20245;-79
2024/03/04 08:59:58;;;;;;;44.97;18.80;;;;;;;-141.50;100.00;63355.56;5008285;28;20062;-79
2024/03/04 09:02:25;;;;;;;44.85;18.77;;;;;;;-141.50;100.00;63355.56;5009345;28;20053;-78
2024/03/04 09:04:52;;;;;;;46.75;19.20;;;;;;;-141.50;100.00;63355.56;4987540;28;20913;-79
2024/03/04 09:07:18;;;;;;;46.58;19.80;;;;;;;-141.50;100.00;63355.56;5009732;28;20057;-80
2024/03/04 09:09:52;;;;;;;47.40;20.17;;;;;;;-141.50;100.00;63355.56;5007326;28;20140;-78
2024/03/04 09:12:20;;;;;;;45.70;18.85;;;;;;;-141.50;100.00;63355.56;4989441;28;20053;-79
2024/03/04 09:14:47;;;;;;;46.17;18.60;;;;;;;-141.50;100.00;63355.56;4989872;28;20057;-80
2024/03/04 09:17:13;;;;;;;45.67;19.45;;;;;;;-141.50;100.00;63355.56;5009494;28;20053;-80
2024/03/04 09:19:41;;;;;;;47.63;19.23;;;;;;;-141.50;100.00;63355.56;4989837;28;20054;-78
2024/03/04 09:22:09;;;;;;;49.03;19.35;;;;;;;-141.50;100.00;63355.56;5011350;28;20110;-79
2024/03/04 09:24:36;;;;;;;46.35;19.13;;;;;;;-141.50;100.00;63355.56;5015519;28;20566;-77
2024/03/04 09:27:03;;;;;;;46.67;19.33;;;;;;;-141.50;100.00;63355.56;5011596;28;20448;-76
2024/03/04 09:29:29;;;;;;;42.00;18.35;;;;;;;-141.50;100.00;63355.56;5017426;28;20045;-77
2024/03/04 09:31:56;;;;;;;38.42;16.95;;;;;;;-141.50;100.00;63355.56;5013109;28;20058;-80
2024/03/04 09:34:23;;;;;;;42.67;17.95;;;;;;;-141.50;100.00;63355.56;4997188;28;20050;-77
2024/03/04 09:36:50;;;;;;;41.03;16.17;;;;;;;-141.50;100.00;63355.56;5007079;28;20062;-78
2024/03/04 09:39:17;;;;;;;33.97;15.13;;;;;;;-141.50;100.00;63355.56;5008468;28;20108;-79
2024/03/04 09:41:44;;;;;;;35.35;15.48;;;;;;;-141.50;100.00;63355.56;5008271;28;20050;-80
2024/03/04 09:44:11;;;;;;;37.75;16.13;;;;;;;-141.50;100.00;63355.56;4991660;28;20404;-78
2024/03/04 09:46:39;;;;;;;36.25;15.63;;;;;;;-141.50;100.00;63355.56;5007912;28;20532;-79
2024/03/04 09:49:09;;;;;;;34.55;14.88;;;;;;;-141.50;100.00;63355.56;4990492;28;20073;-78
2024/03/04 09:51:37;;;;;;;30.25;14.50;;;;;;;-141.50;100.00;63355.56;4988362;28;20060;-79
2024/03/04 09:54:04;;;;;;;33.63;15.05;;;;;;;-141.50;100.00;63355.56;4987727;28;20103;-80
2024/03/04 09:56:31;;;;;;;37.58;15.55;;;;;;;-141.50;100.00;63355.56;4989941;28;20038;-78
2024/03/04 09:58:58;;;;;;;29.08;13.95;;;;;;;-141.50;100.00;63355.56;4990485;28;20058;-79
2024/03/04 10:01:25;;;;;;;35.42;15.63;;;;;;;-141.50;100.00;63355.56;4990697;28;20471;-78
2024/03/04 10:03:54;;;;;;;32.33;14.93;;;;;;;-141.50;100.00;63355.56;4988312;28;20227;-78
2024/03/04 10:06:21;;;;;;;33.22;15.40;;;;;;;-141.50;100.00;63355.56;4999671;28;20091;-78
2024/03/04 10:08:48;;;;;;;36.83;16.15;;;;;;;-141.50;100.00;63355.56;5006138;28;20042;-80
2024/03/04 10:11:18;;;;;;;38.05;16.27;;;;;;;-141.50;100.00;63355.56;4987592;28;20153;-78
2024/03/04 10:13:46;;;;;;;33.95;15.52;;;;;;;-141.50;100.00;63355.56;5006110;28;20080;-79
2024/03/04 10:16:15;;;;;;;34.35;15.02;;;;;;;-141.50;100.00;63355.56;5008249;28;20050;-78
2024/03/04 10:18:56;;;;;;;34.00;15.10;;;;;;;-141.50;100.00;63355.56;5006372;28;20237;-78
2024/03/04 10:21:27;;;;;;;37.63;16.50;;;;;;;-141.50;100.00;63355.56;5003043;28;20057;-80
2024/03/04 10:23:56;;;;;;;39.80;17.13;;;;;;;-141.50;100.00;63355.56;4986074;28;20475;-78
2024/03/04 10:26:24;;;;;;;39.80;16.65;;;;;;;-141.50;100.00;63355.56;4992261;28;20504;-77
2024/03/04 10:28:51;;;;;;;36.55;17.52;;;;;;;-141.50;100.00;63355.56;5007451;28;20058;-76
2024/03/04 10:31:18;;;;;;;38.90;18.65;;;;;;;-141.50;100.00;63355.56;4991928;28;20065;-77
2024/03/04 10:33:45;;;;;;;39.80;18.25;;;;;;;-141.50;100.00;63355.56;5007659;28;20054;-79
2024/03/04 10:36:16;;;;;;;37.65;17.02;;;;;;;-141.50;100.00;63355.56;5003532;28;20060;-79
2024/03/04 10:38:46;;;;;;;37.10;18.02;;;;;;;-141.50;100.00;63355.56;5007219;28;20054;-78
2024/03/04 10:41:30;;;;;;;37.95;17.80;;;;;;;-141.50;100.00;63355.56;5004466;28;20041;-77
2024/03/04 10:43:56;;;;;;;42.95;19.10;;;;;;;-141.50;100.00;63355.56;5008767;28;20080;-78
2024/03/04 10:46:24;;;;;;;40.60;18.50;;;;;;;-141.50;100.00;63355.56;4999406;28;20353;-77
2024/03/04 10:48:52;;;;;;;37.28;17.80;;;;;;;-141.50;100.00;63355.56;5008874;28;20114;-78
2024/03/04 10:51:19;;;;;;;38.45;18.85;;;;;;;-141.50;100.00;63355.56;5009310;28;20057;-78
2024/03/04 10:53:46;;;;;;;40.83;19.10;;;;;;;-141.50;100.00;63355.56;5008795;28;20053;-77
2024/03/04 10:56:16;;;;;;;40.45;18.10;;;;;;;-141.50;100.00;63355.56;5005010;28;20069;-79
2024/03/04 10:58:44;;;;;;;39.88;18.23;;;;;;;-141.50;100.00;63355.56;4988551;28;20416;-78